Country
Station

 

Weather  for  Yeonpyeungdo  -  Korea (Republic of)    Korea (Republic of)

  
26 °C (79 °F)
    
 
 

Current METAR for Yeonpyeungdo is :

RKSQ 052148Z 28004KT 3200 BR BKN002 26/26 A2977 RMK CIG002

 

This is a report for Yeonpyeungdo - Korea (Republic of).
 
The report was made 261 hours and 15 minutes ago, at 21:48 UTC .
The wind was blowing at a speed of 2.1 meters per second (4.6 miles per hour) from west (280°).
 
The temperature was 26 °C (79 °F), with a dew-point at 26 °C (79 °F).
The temperature felt like 29 °C (84 °F).
 
The atmospheric pressure was 1008 hPa (29.77 inHg).
The relative humidity was 100.0%.
 
There were broken clouds at a height of 61 meters (200 feet).
 
The overall visibility was 3200 meter (10499 feet).
 
Currently mist.

 
 
 
 

Country :   A   B   C   D   E   F   G   H   I   J   K   L   M   N   O   P   Q   R   S   T   U   V   W   Y   Z

 

Site Info  |  Disclaimer  |  Credits  |  Privacy
Contact us  |  Add to favorites
© 2013-2018 METARs - All rights reserved